Corpus Christi, Texas
Current Conditions -  °F | °C
As of 7:51 PM on Wednesday 17 Dec 2014 (Local Time) from KCRP Reporting Station
Overcast Overcast  
Wind Chill: 21°   Ceiling: 4200
Heat Index: 21°   Visibility: 10mi
Dew Point: 18°   Wind: 8mph
Humidity: 87%   Direction: 150°SSE
Pressure: 30.03"   Gusts: NA
Location:  27.8°N, 97.4°W
Report Text: KCRP 180151Z 15007KT 10SM FEW018 BKN042 OVC200 21/18 A3003 RMK AO2 SLP170 T02060183
Loading
Personal Weather Stations






























Interactive Weather Map New forecast layout! Learn more

10-Day Weather Forecast

Advertisements
Track Severe Weather on mobile